Time;durP1;ratioP1;P1;durP2;ratioP2;P2;SDS_P1;SDS_P2;PMS_P1;PMS_P2;Temp;Humidity;BMP_temperature;BMP_pressure;BME280_temperature;BME280_humidity;BME280_pressure;Samples;Min_cycle;Max_cycle;Signal;HPM_P1;HPM_P2
2022/06/23 00:00:59;;;;;;;6.3;3.2;;;;;;;17.89;98.25977;936.2756;;;;
2022/06/23 00:03:39;;;;;;;8.4;3.1;;;;;;;17.96;97.40332;936.2162;;;;
2022/06/23 00:06:12;;;;;;;7.6;3.3;;;;;;;17.93;96.88574;936.1853;;;;
2022/06/23 00:08:45;;;;;;;5.7;3;;;;;;;17.86;97.37109;936.2198;;;;
2022/06/23 00:11:12;;;;;;;6.7;3;;;;;;;17.93;97.24609;936.2039;;;;
2022/06/23 00:13:37;;;;;;;8.6;3.7;;;;;;;17.84;97.91113;936.259;;;;
2022/06/23 00:16:07;;;;;;;7.9;3.2;;;;;;;17.86;97.99805;936.3052;;;;
2022/06/23 00:18:32;;;;;;;6.6;3.1;;;;;;;17.93;98.05859;936.3956;;;;
2022/06/23 00:20:57;;;;;;;6.7;3.2;;;;;;;17.8;98.13281;936.324;;;;
2022/06/23 00:23:22;;;;;;;6.2;3.1;;;;;;;17.79;97.32031;936.3145;;;;
2022/06/23 00:25:47;;;;;;;6.2;2.9;;;;;;;17.8;95.95215;936.3223;;;;
2022/06/23 00:28:12;;;;;;;6.8;3.2;;;;;;;17.8;95.47656;936.2595;;;;
2022/06/23 00:30:38;;;;;;;6.9;3;;;;;;;17.83;96.52734;936.2246;;;;
2022/06/23 00:33:03;;;;;;;7.1;2.9;;;;;;;17.74;96.93652;936.2336;;;;
2022/06/23 00:35:28;;;;;;;8.5;3.4;;;;;;;17.61;97.70801;936.185;;;;
2022/06/23 00:37:56;;;;;;;7.2;3.3;;;;;;;17.58;97.83105;936.125;;;;
2022/06/23 00:40:21;;;;;;;8.8;3.1;;;;;;;17.61;97.72168;936.205;;;;
2022/06/23 00:42:49;;;;;;;8.2;2.8;;;;;;;17.66;97.16504;936.2526;;;;
2022/06/23 00:45:15;;;;;;;5.5;2.4;;;;;;;17.71;96.69922;936.2244;;;;
2022/06/23 00:47:39;;;;;;;8.5;2.9;;;;;;;17.69;96.66016;936.2925;;;;
2022/06/23 00:50:04;;;;;;;7.2;2.6;;;;;;;17.67;96.7002;936.2146;;;;
2022/06/23 00:52:31;;;;;;;6.4;2.9;;;;;;;17.69;95.94043;936.2498;;;;
2022/06/23 00:54:56;;;;;;;7.9;3.2;;;;;;;17.66;96.74512;936.2792;;;;
2022/06/23 00:57:21;;;;;;;7.8;3.3;;;;;;;17.46;98.18652;936.2991;;;;
2022/06/23 00:59:47;;;;;;;5.3;2.7;;;;;;;17.49;97.0918;936.2903;;;;
2022/06/23 01:02:12;;;;;;;7.4;3;;;;;;;17.47;96.28516;936.3367;;;;
2022/06/23 01:04:40;;;;;;;8.9;2.8;;;;;;;17.46;95.88965;936.3055;;;;
2022/06/23 01:07:06;;;;;;;8.8;2.7;;;;;;;17.46;95.37891;936.3474;;;;
2022/06/23 01:09:32;;;;;;;8.4;2.9;;;;;;;17.44;96.26563;936.3583;;;;
2022/06/23 01:11:58;;;;;;;5.6;3.1;;;;;;;17.39;97.0332;936.3879;;;;
2022/06/23 01:14:23;;;;;;;5.1;2.7;;;;;;;17.17;97.87793;936.4345;;;;
2022/06/23 01:16:49;;;;;;;4.7;2.8;;;;;;;17.18;98.06543;936.4047;;;;
2022/06/23 01:19:14;;;;;;;5.8;2.7;;;;;;;16.92;99.51367;936.4936;;;;
2022/06/23 01:21:42;;;;;;;4.9;2.6;;;;;;;16.9;100;936.4988;;;;
2022/06/23 01:24:07;;;;;;;6;2.6;;;;;;;17.01;99.3252;936.5016;;;;
2022/06/23 01:26:32;;;;;;;7.5;3.1;;;;;;;17.01;98.94238;936.5184;;;;
2022/06/23 01:28:57;;;;;;;4.9;2.3;;;;;;;17.02;98.78418;936.4476;;;;
2022/06/23 01:31:23;;;;;;;6.5;2.7;;;;;;;17.04;98.12598;936.5336;;;;
2022/06/23 01:33:48;;;;;;;6.1;2.3;;;;;;;17.02;97.85547;936.4961;;;;
2022/06/23 01:36:13;;;;;;;6.4;2.4;;;;;;;16.93;97.66113;936.4523;;;;
2022/06/23 01:38:42;;;;;;;5;2.5;;;;;;;16.91;97.76172;936.4462;;;;
2022/06/23 01:41:11;;;;;;;6.1;2.2;;;;;;;16.99;97.22559;936.4833;;;;
2022/06/23 01:43:37;;;;;;;7;2.2;;;;;;;17;96.42578;936.5131;;;;
2022/06/23 01:46:02;;;;;;;5.2;2;;;;;;;17.01;95.44336;936.4807;;;;
2022/06/23 01:48:53;;;;;;;5.4;2.3;;;;;;;16.97;95.66699;936.4669;;;;
2022/06/23 01:50:57;;;;;;;6.2;2.5;;;;;;;16.9;96.21875;936.4271;;;;
2022/06/23 01:53:23;;;;;;;7.2;2.8;;;;;;;16.95;96.50879;936.5541;;;;
2022/06/23 01:55:47;;;;;;;7.9;2.2;;;;;;;16.9;96.68262;936.5422;;;;
2022/06/23 01:58:13;;;;;;;7.1;2.5;;;;;;;16.89;96.56445;936.5528;;;;
2022/06/23 02:00:37;;;;;;;6.1;2.3;;;;;;;16.94;96.14551;936.5592;;;;
2022/06/23 02:03:05;;;;;;;7.4;2.7;;;;;;;16.92;95.95605;936.6883;;;;
2022/06/23 02:05:34;;;;;;;5.7;2.7;;;;;;;16.62;97.46582;936.6233;;;;
2022/06/23 02:07:58;;;;;;;3.1;2.2;;;;;;;16.63;97.74414;936.67;;;;
2022/06/23 02:10:28;;;;;;;5.7;2.4;;;;;;;16.63;97.60645;936.6844;;;;
2022/06/23 02:12:54;;;;;;;5.5;2.7;;;;;;;16.63;97.08594;936.7109;;;;
2022/06/23 02:15:20;;;;;;;5;2.5;;;;;;;16.68;96.25;936.7378;;;;
2022/06/23 02:17:45;;;;;;;7.2;2.3;;;;;;;16.65;96.19824;936.7308;;;;
2022/06/23 02:20:10;;;;;;;4.6;2.1;;;;;;;16.7;95.90918;936.8203;;;;
2022/06/23 02:22:38;;;;;;;6.3;2.2;;;;;;;16.71;95.41309;936.8853;;;;
2022/06/23 02:25:03;;;;;;;4.5;2.4;;;;;;;16.76;95.21582;936.9214;;;;
2022/06/23 02:27:28;;;;;;;5.5;2.4;;;;;;;16.44;96.76563;936.9203;;;;
2022/06/23 02:29:56;;;;;;;5.9;2.7;;;;;;;16.12;98.66016;936.8546;;;;
2022/06/23 02:32:25;;;;;;;6.6;3;;;;;;;15.97;100;936.8442;;;;
2022/06/23 02:34:50;;;;;;;4.3;2.3;;;;;;;15.91;100;936.9302;;;;
2022/06/23 02:37:15;;;;;;;5.4;2.4;;;;;;;16.05;100;936.98;;;;
2022/06/23 02:39:41;;;;;;;5.8;2.1;;;;;;;16.22;98.72852;936.9303;;;;
2022/06/23 02:42:06;;;;;;;3.4;2;;;;;;;16.32;97.96484;936.9484;;;;
2022/06/23 02:44:36;;;;;;;7.3;2.5;;;;;;;16.38;97.05273;936.9699;;;;
2022/06/23 02:47:02;;;;;;;5.3;2;;;;;;;16.38;96.9834;937.0061;;;;
2022/06/23 02:49:28;;;;;;;5.7;2;;;;;;;16.36;96.73828;936.9967;;;;
2022/06/23 02:51:56;;;;;;;6.5;2.1;;;;;;;16.37;96.48438;936.9805;;;;
2022/06/23 02:54:23;;;;;;;6.3;2.4;;;;;;;16.37;96.16211;936.9893;;;;
2022/06/23 02:56:48;;;;;;;3.7;1.9;;;;;;;16.41;95.61426;936.9896;;;;
2022/06/23 02:59:13;;;;;;;4;1.7;;;;;;;16.4;95.23047;936.9961;;;;
2022/06/23 03:01:42;;;;;;;3.7;1.8;;;;;;;16.38;95.11035;936.9916;;;;
2022/06/23 03:04:07;;;;;;;4.2;2.1;;;;;;;16.34;95.12402;937.0002;;;;
2022/06/23 03:06:32;;;;;;;3.3;1.8;;;;;;;16.33;95.0625;936.9877;;;;
2022/06/23 03:08:57;;;;;;;6.9;2.1;;;;;;;16.22;95.49219;937.0181;;;;
2022/06/23 03:11:51;;;;;;;6.1;2.2;;;;;;;16.19;95.82129;936.9973;;;;
2022/06/23 03:13:48;;;;;;;2.8;2;;;;;;;16.21;95.81348;937.0275;;;;
2022/06/23 03:16:14;;;;;;;4.8;2.4;;;;;;;16.17;95.85059;936.9358;;;;
2022/06/23 03:18:40;;;;;;;6.8;2.1;;;;;;;16.14;95.75195;936.9972;;;;
2022/06/23 03:21:05;;;;;;;7.3;2.7;;;;;;;16.09;96.24902;937.0686;;;;
2022/06/23 03:23:30;;;;;;;5;2.1;;;;;;;16.05;96.59766;937.046;;;;
2022/06/23 03:25:55;;;;;;;9.5;2.2;;;;;;;15.91;97.85059;937.0386;;;;
2022/06/23 03:28:22;;;;;;;6.8;2.1;;;;;;;15.98;97.3252;937.0826;;;;
2022/06/23 03:30:47;;;;;;;7;2.1;;;;;;;15.92;97.29785;937.1019;;;;
2022/06/23 03:33:13;;;;;;;3.7;1.8;;;;;;;15.72;97.79883;937.1217;;;;
2022/06/23 03:35:37;;;;;;;3.2;1.7;;;;;;;15.57;98.88477;937.1462;;;;
2022/06/23 03:38:02;;;;;;;3.7;2;;;;;;;15.68;98.63184;937.1544;;;;
2022/06/23 03:42:55;;;;;;;3.1;1.9;;;;;;;15.62;99.93457;937.1961;;;;
2022/06/23 03:45:24;;;;;;;4.6;1.9;;;;;;;15.77;98.75586;937.1822;;;;
2022/06/23 03:47:49;;;;;;;4.4;2.6;;;;;;;15.78;98.15723;937.2061;;;;
2022/06/23 03:50:15;;;;;;;5.1;2.3;;;;;;;15.57;97.86816;937.2193;;;;
2022/06/23 03:52:41;;;;;;;6.6;2.3;;;;;;;15.25;99.46875;937.1912;;;;
2022/06/23 03:55:05;;;;;;;3.8;2.3;;;;;;;15.45;98.89258;937.2391;;;;
2022/06/23 03:57:31;;;;;;;5;2.1;;;;;;;15.57;98.45703;937.3036;;;;
2022/06/23 03:59:56;;;;;;;2.8;1.7;;;;;;;15.42;99.5332;937.351;;;;
2022/06/23 04:02:32;;;;;;;7.9;2.4;;;;;;;15.64;98.83203;937.2375;;;;
2022/06/23 04:04:58;;;;;;;3.8;2.2;;;;;;;15.76;97.82813;937.3052;;;;
2022/06/23 04:07:28;;;;;;;4.8;2.2;;;;;;;15.79;97.67578;937.3159;;;;
2022/06/23 04:09:55;;;;;;;7;2.7;;;;;;;15.81;97.58789;937.3158;;;;
2022/06/23 04:12:21;;;;;;;5.6;1.9;;;;;;;15.76;97.42383;937.2955;;;;
2022/06/23 04:14:46;;;;;;;4.6;2.1;;;;;;;15.62;98.27148;937.343;;;;
2022/06/23 04:17:13;;;;;;;4.1;1.8;;;;;;;15.8;98.00195;937.3585;;;;
2022/06/23 04:19:38;;;;;;;4.1;1.7;;;;;;;15.94;97.18652;937.3113;;;;
2022/06/23 04:22:03;;;;;;;6.1;2.2;;;;;;;15.97;96.92871;937.2626;;;;
2022/06/23 04:24:29;;;;;;;6.5;2.4;;;;;;;16.06;96.16211;937.3035;;;;
2022/06/23 04:26:54;;;;;;;4.3;2.5;;;;;;;16.14;95.41602;937.2977;;;;
2022/06/23 04:29:20;;;;;;;5.1;2.4;;;;;;;16.12;95.62988;937.3502;;;;
2022/06/23 04:31:45;;;;;;;4;2.2;;;;;;;16.11;94.98242;937.3873;;;;
2022/06/23 04:34:10;;;;;;;3.5;1.7;;;;;;;16.11;95.43359;937.3631;;;;
2022/06/23 04:36:35;;;;;;;3.1;1.9;;;;;;;16.13;95.05566;937.3549;;;;
2022/06/23 04:39:00;;;;;;;3.5;1.8;;;;;;;16.01;95.12109;937.3914;;;;
2022/06/23 04:41:25;;;;;;;5.5;2.1;;;;;;;16.07;94.86719;937.3638;;;;
2022/06/23 04:43:53;;;;;;;4.5;2.2;;;;;;;16.22;94.35645;937.3508;;;;
2022/06/23 04:46:18;;;;;;;3.7;1.9;;;;;;;16.23;94.10352;937.3434;;;;
2022/06/23 04:48:43;;;;;;;4.3;1.9;;;;;;;16.27;93.82422;937.3588;;;;
2022/06/23 04:51:11;;;;;;;5.4;1.8;;;;;;;16.37;93.37109;937.3148;;;;
2022/06/23 04:53:39;;;;;;;8;2.4;;;;;;;16.39;93.05273;937.2672;;;;
2022/06/23 04:56:08;;;;;;;7.2;2.3;;;;;;;16.39;93.3418;937.2751;;;;
2022/06/23 04:58:33;;;;;;;4.8;2.1;;;;;;;16.46;93.01953;937.3934;;;;
2022/06/23 05:00:59;;;;;;;7.3;2.1;;;;;;;16.58;92.6875;937.3851;;;;
2022/06/23 05:03:24;;;;;;;4.4;2.2;;;;;;;16.94;94.46582;937.4086;;;;
2022/06/23 05:05:49;;;;;;;3.9;2;;;;;;;18.05;88.00195;937.4191;;;;
2022/06/23 05:08:14;;;;;;;5.4;1.8;;;;;;;18.67;83.71777;937.3655;;;;
2022/06/23 05:10:39;;;;;;;4.2;1.5;;;;;;;19.93;78.19434;937.3864;;;;
2022/06/23 05:13:04;;;;;;;5.6;1.5;;;;;;;20.56;74.55762;937.3561;;;;
2022/06/23 05:15:32;;;;;;;3.1;1.6;;;;;;;21.4;71.23438;937.3644;;;;
2022/06/23 05:17:58;;;;;;;5.5;1.7;;;;;;;22.05;67.66797;937.3928;;;;
2022/06/23 05:20:23;;;;;;;2.8;1.2;;;;;;;22.37;66.68555;937.2659;;;;
2022/06/23 05:22:48;;;;;;;2;1.2;;;;;;;22.57;64.88477;937.2977;;;;
2022/06/23 05:25:17;;;;;;;4.4;1.2;;;;;;;22.67;65.87305;937.2089;;;;
2022/06/23 05:27:42;;;;;;;5.8;1.5;;;;;;;23.54;63.03906;937.2189;;;;
2022/06/23 05:30:07;;;;;;;3.8;1.3;;;;;;;24.31;59.66113;937.1834;;;;
2022/06/23 05:32:32;;;;;;;3.9;1.5;;;;;;;24.64;58.76074;937.1903;;;;
2022/06/23 05:34:57;;;;;;;5.4;1.3;;;;;;;24.39;58.69336;937.233;;;;
2022/06/23 05:37:23;;;;;;;2.9;1.1;;;;;;;24.9;57.06152;937.1602;;;;
2022/06/23 05:39:48;;;;;;;3.1;1.4;;;;;;;25.27;56.11719;937.0967;;;;
2022/06/23 05:42:13;;;;;;;5.7;1.3;;;;;;;25.21;55.02246;937.1019;;;;
2022/06/23 05:44:39;;;;;;;2.9;1.2;;;;;;;25.83;53.8584;937.1121;;;;
2022/06/23 05:47:05;;;;;;;5;1.5;;;;;;;25.99;55.05957;937.1619;;;;
2022/06/23 05:49:30;;;;;;;2.7;1;;;;;;;25.75;52.91504;937.1789;;;;
2022/06/23 05:51:55;;;;;;;2.2;1.1;;;;;;;25.27;54.48633;937.1523;;;;
2022/06/23 05:54:20;;;;;;;3.2;1.1;;;;;;;25.02;55.33105;937.1262;;;;
2022/06/23 05:56:50;;;;;;;2.5;1.1;;;;;;;25.73;53.89355;937.1333;;;;
2022/06/23 05:59:15;;;;;;;2.4;1.1;;;;;;;25.23;57.59961;937.0906;;;;
2022/06/23 06:01:43;;;;;;;2.7;1.4;;;;;;;26.28;52.58594;937.1212;;;;
2022/06/23 06:04:08;;;;;;;2.9;1.3;;;;;;;26.9;53.40723;937.1144;;;;
2022/06/23 06:06:35;;;;;;;3.6;1.1;;;;;;;26.88;52.53906;937.0994;;;;
2022/06/23 06:11:30;;;;;;;2;1.1;;;;;;;28.37;48.70703;937.0687;;;;
2022/06/23 06:13:59;;;;;;;2.5;1.1;;;;;;;28.26;46.59082;937.1067;;;;
2022/06/23 06:16:25;;;;;;;2.3;1.1;;;;;;;27.69;49.83203;937.0507;;;;
2022/06/23 06:18:50;;;;;;;3.8;1.1;;;;;;;27.7;50.20117;937.0442;;;;
2022/06/23 06:21:19;;;;;;;3.6;1.2;;;;;;;28.05;48.79102;937.0035;;;;
2022/06/23 06:23:44;;;;;;;2.6;1.5;;;;;;;28.17;45.41699;936.9905;;;;
2022/06/23 06:26:09;;;;;;;2.4;0.9;;;;;;;27.04;48.94238;937.0027;;;;
2022/06/23 06:28:37;;;;;;;2.7;1.2;;;;;;;28.15;46.87695;936.9892;;;;
2022/06/23 06:31:02;;;;;;;3.6;1.2;;;;;;;29.1;45.97559;936.937;;;;
2022/06/23 06:33:28;;;;;;;1.4;0.7;;;;;;;27.66;47.0625;936.9543;;;;
2022/06/23 06:35:53;;;;;;;2.3;1.1;;;;;;;27.93;46.50977;936.9225;;;;
2022/06/23 06:38:18;;;;;;;4.1;1;;;;;;;26.63;50.05762;936.9639;;;;
2022/06/23 06:40:46;;;;;;;1.3;0.9;;;;;;;27.35;48.43066;936.9222;;;;
2022/06/23 06:43:11;;;;;;;2.5;1.3;;;;;;;27.52;48.60352;936.9797;;;;
2022/06/23 06:45:40;;;;;;;2.1;0.9;;;;;;;28.93;45.64844;936.8872;;;;
2022/06/23 06:48:05;;;;;;;2;0.8;;;;;;;29.23;47.44141;936.8703;;;;
2022/06/23 06:50:33;;;;;;;1.6;0.8;;;;;;;30.31;42.89941;936.8606;;;;
2022/06/23 06:52:58;;;;;;;2.2;0.8;;;;;;;30.23;45.08789;936.8446;;;;
2022/06/23 06:55:24;;;;;;;3.5;0.8;;;;;;;29.93;41.49219;936.8561;;;;
2022/06/23 06:57:49;;;;;;;2;0.7;;;;;;;30.09;42.96191;936.7901;;;;
2022/06/23 07:00:15;;;;;;;2.3;0.8;;;;;;;30.26;42.65625;936.8172;;;;
2022/06/23 07:02:40;;;;;;;2.2;0.7;;;;;;;30.05;44.39063;936.7327;;;;
2022/06/23 07:05:05;;;;;;;4.2;1.1;;;;;;;30.54;41.08203;936.7771;;;;
2022/06/23 07:07:31;;;;;;;1.4;0.9;;;;;;;29.83;44.91699;936.7833;;;;
2022/06/23 07:09:57;;;;;;;2.3;0.9;;;;;;;31.23;40.62988;936.6688;;;;
2022/06/23 07:12:21;;;;;;;2.5;0.9;;;;;;;31.65;38.75098;936.5978;;;;
2022/06/23 07:14:46;;;;;;;2.3;1;;;;;;;30.66;41.49805;936.6136;;;;
2022/06/23 07:17:12;;;;;;;0.9;0.7;;;;;;;31.36;43.21387;936.585;;;;
2022/06/23 07:19:37;;;;;;;2;0.8;;;;;;;30.37;41.5791;936.5533;;;;
2022/06/23 07:22:02;;;;;;;1.9;0.8;;;;;;;30.31;42.31348;936.5356;;;;
2022/06/23 07:24:27;;;;;;;0.9;0.7;;;;;;;31.42;39.97656;936.4711;;;;
2022/06/23 07:26:52;;;;;;;1.7;0.9;;;;;;;30.7;42.39941;936.4383;;;;
2022/06/23 07:29:17;;;;;;;2.2;0.7;;;;;;;31.92;40.51172;936.4319;;;;
2022/06/23 07:31:44;;;;;;;2.9;0.7;;;;;;;32.78;36.41113;936.3769;;;;
2022/06/23 07:34:11;;;;;;;1.5;1;;;;;;;33.36;35.92871;936.3713;;;;
2022/06/23 07:36:36;;;;;;;1.9;1;;;;;;;33.19;36.35938;936.3569;;;;
2022/06/23 07:39:01;;;;;;;3.2;0.9;;;;;;;33.42;37.11035;936.3578;;;;
2022/06/23 07:41:26;;;;;;;2.4;1;;;;;;;33.84;35.94238;936.3235;;;;
2022/06/23 07:43:52;;;;;;;2.6;1.1;;;;;;;33.48;35.46875;936.282;;;;
2022/06/23 07:46:21;;;;;;;2.3;1;;;;;;;32.15;37.11621;936.2466;;;;
2022/06/23 07:48:46;;;;;;;1.9;0.9;;;;;;;32.02;38.33984;936.2054;;;;
2022/06/23 07:51:14;;;;;;;2.6;1;;;;;;;32.57;39.60938;936.2001;;;;
2022/06/23 07:53:39;;;;;;;3.7;1;;;;;;;33.91;37.33105;936.2303;;;;
2022/06/23 07:56:04;;;;;;;2.9;1.1;;;;;;;34.33;38.66699;936.2018;;;;
2022/06/23 07:58:29;;;;;;;2.1;0.9;;;;;;;34;35.4375;936.1599;;;;
2022/06/23 08:00:56;;;;;;;1.3;0.8;;;;;;;35.08;34.78516;936.1578;;;;
2022/06/23 08:03:22;;;;;;;2.9;1;;;;;;;34.91;34.04883;936.0981;;;;
2022/06/23 08:05:48;;;;;;;1;0.7;;;;;;;34.82;34.18555;936.0605;;;;
2022/06/23 08:08:12;;;;;;;1.7;0.9;;;;;;;35.45;34.06445;936.0311;;;;
2022/06/23 08:10:37;;;;;;;2.1;0.9;;;;;;;34.18;32.95801;936.012;;;;
2022/06/23 08:13:02;;;;;;;3.7;1.1;;;;;;;35.06;33.35938;936.05;;;;
2022/06/23 08:17:59;;;;;;;1.8;1;;;;;;;32.25;36.56055;935.9871;;;;
2022/06/23 08:20:29;;;;;;;1.5;0.9;;;;;;;31.9;37.15527;935.9409;;;;
2022/06/23 08:22:55;;;;;;;1.3;0.8;;;;;;;31.89;38.91504;935.9504;;;;
2022/06/23 08:25:20;;;;;;;1.8;0.8;;;;;;;33.32;34.71191;935.8925;;;;
2022/06/23 08:27:46;;;;;;;2.4;1;;;;;;;34.45;33.80957;935.949;;;;
2022/06/23 08:30:11;;;;;;;3.8;0.9;;;;;;;35.18;31.00391;935.8859;;;;
2022/06/23 08:32:37;;;;;;;2.1;1;;;;;;;34.53;32.27246;935.9016;;;;
2022/06/23 08:35:01;;;;;;;2;0.9;;;;;;;35.02;32.45215;935.8679;;;;
2022/06/23 08:37:30;;;;;;;3.5;1.2;;;;;;;35.2;34.89063;935.8095;;;;
2022/06/23 08:39:56;;;;;;;3.8;1;;;;;;;34.97;35.98242;935.7952;;;;
2022/06/23 08:42:21;;;;;;;3;1.1;;;;;;;34.51;33.96973;935.7611;;;;
2022/06/23 08:44:46;;;;;;;1.9;1.3;;;;;;;33.27;36.48633;935.6989;;;;
2022/06/23 08:47:11;;;;;;;3.5;1.4;;;;;;;32.62;40.4541;935.6893;;;;
2022/06/23 08:49:36;;;;;;;3.2;1.1;;;;;;;34.01;37.06348;935.6844;;;;
2022/06/23 08:52:01;;;;;;;2.6;1.1;;;;;;;33.21;39.52148;935.6245;;;;
2022/06/23 08:54:27;;;;;;;2.3;1.1;;;;;;;32.35;39.3623;935.5878;;;;
2022/06/23 08:56:52;;;;;;;2.9;0.9;;;;;;;31.05;41.76172;935.5922;;;;
2022/06/23 08:59:17;;;;;;;3.2;1.2;;;;;;;31.23;42.25586;935.5939;;;;
2022/06/23 09:01:44;;;;;;;2.7;1.2;;;;;;;31.59;42.2666;935.5149;;;;
2022/06/23 09:04:09;;;;;;;4.1;1;;;;;;;31.99;40.83008;935.4788;;;;
2022/06/23 09:06:36;;;;;;;3.9;1.7;;;;;;;32.18;40.25879;935.432;;;;
2022/06/23 09:09:01;;;;;;;3.6;1.3;;;;;;;31.85;40.57715;935.4611;;;;
2022/06/23 09:11:26;;;;;;;1.8;1.2;;;;;;;30.41;44.73535;935.3885;;;;
2022/06/23 09:13:51;;;;;;;4.1;1.1;;;;;;;31.39;42.3916;935.4235;;;;
2022/06/23 09:16:17;;;;;;;4.1;1.2;;;;;;;31.39;42.05664;935.3663;;;;
2022/06/23 09:18:42;;;;;;;4.7;1.4;;;;;;;30.74;46.63281;935.407;;;;
2022/06/23 09:21:07;;;;;;;4;1.4;;;;;;;30.32;45.79004;935.3201;;;;
2022/06/23 09:23:36;;;;;;;5.2;1.8;;;;;;;30.16;48.17188;935.3999;;;;
2022/06/23 09:26:00;;;;;;;4.5;1.4;;;;;;;30.53;45.5957;935.2692;;;;
2022/06/23 09:28:26;;;;;;;3.4;1.2;;;;;;;30.9;46.61426;935.2969;;;;
2022/06/23 09:30:51;;;;;;;2.9;1.3;;;;;;;29.85;48.10352;935.213;;;;
2022/06/23 09:33:16;;;;;;;4;1.5;;;;;;;29.57;48.5625;935.1617;;;;
2022/06/23 09:35:44;;;;;;;4.2;1.4;;;;;;;29.08;50.16504;935.2001;;;;
2022/06/23 09:38:10;;;;;;;3.4;1.2;;;;;;;29.47;47.97852;935.1786;;;;
2022/06/23 09:40:39;;;;;;;3.4;1.2;;;;;;;29.5;47.66211;935.098;;;;
2022/06/23 09:43:04;;;;;;;3.9;1.4;;;;;;;29.17;51.36621;935.1022;;;;
2022/06/23 09:45:30;;;;;;;2.6;1.1;;;;;;;29.91;46.16602;935.1302;;;;
2022/06/23 09:47:57;;;;;;;3.2;1.1;;;;;;;30.43;43.68652;935.105;;;;
2022/06/23 09:50:22;;;;;;;2.7;1.3;;;;;;;30.05;43.81738;935.1289;;;;
2022/06/23 09:52:49;;;;;;;3;1.2;;;;;;;30.17;44.67676;935.0725;;;;
2022/06/23 09:55:16;;;;;;;4.9;1.2;;;;;;;30.27;47.25293;935.0994;;;;
2022/06/23 09:57:41;;;;;;;2.9;1.1;;;;;;;29.89;44.06445;935.0361;;;;
2022/06/23 10:00:06;;;;;;;5.2;1.6;;;;;;;29.77;46.23535;935.0648;;;;
2022/06/23 10:02:34;;;;;;;3;1.2;;;;;;;29.92;44.43652;935.0294;;;;
2022/06/23 10:05:00;;;;;;;4.4;1.4;;;;;;;30.08;45.5752;935.0659;;;;
2022/06/23 10:07:25;;;;;;;2.7;1;;;;;;;29.68;45.97461;935.0042;;;;
2022/06/23 10:09:53;;;;;;;6.6;1.3;;;;;;;29.78;46.8916;935.0605;;;;
2022/06/23 10:12:20;;;;;;;3;1.1;;;;;;;29.57;45.97461;935.0248;;;;
2022/06/23 10:14:45;;;;;;;2.8;1.2;;;;;;;28.94;47.48242;934.992;;;;
2022/06/23 10:17:10;;;;;;;3.2;1.3;;;;;;;29.19;47.44922;934.9902;;;;
2022/06/23 10:19:36;;;;;;;3.5;1.1;;;;;;;29.34;44.96289;934.9686;;;;
2022/06/23 10:22:01;;;;;;;3.5;1.1;;;;;;;29.49;44.41797;934.98;;;;
2022/06/23 10:24:30;;;;;;;10.1;1.8;;;;;;;29.53;44.95898;934.9256;;;;
2022/06/23 10:26:58;;;;;;;3.9;1.3;;;;;;;29.65;47.10449;934.9283;;;;
2022/06/23 10:29:23;;;;;;;2.2;1.2;;;;;;;29.93;46.5498;934.8438;;;;
2022/06/23 10:31:49;;;;;;;4.1;1.8;;;;;;;29.88;47.21191;934.8318;;;;
2022/06/23 10:34:21;;;;;;;3.7;1.2;;;;;;;29.8;45.9873;934.9247;;;;
2022/06/23 10:36:50;;;;;;;5.1;1.5;;;;;;;29.86;46.25586;934.8688;;;;
2022/06/23 10:39:18;;;;;;;4.3;2;;;;;;;29.82;46.51465;934.8389;;;;
2022/06/23 10:41:50;;;;;;;3;1.3;;;;;;;28.96;48.88965;934.7775;;;;
2022/06/23 10:44:14;;;;;;;6.1;1.7;;;;;;;28.63;50.44824;934.6922;;;;
2022/06/23 10:46:39;;;;;;;3.1;1.2;;;;;;;28.77;50.5;934.7561;;;;
2022/06/23 10:49:07;;;;;;;4.3;1.5;;;;;;;28.21;51.51855;934.6262;;;;
2022/06/23 10:51:32;;;;;;;3.9;1.7;;;;;;;28.3;50.64941;934.6905;;;;
2022/06/23 10:53:57;;;;;;;4.5;1.6;;;;;;;28.29;52.62012;934.6453;;;;
2022/06/23 10:56:22;;;;;;;5.1;1.3;;;;;;;28.63;51.32813;934.6234;;;;
2022/06/23 10:58:48;;;;;;;4.6;1.6;;;;;;;29;48.44141;934.6141;;;;
2022/06/23 11:01:16;;;;;;;4;1.4;;;;;;;29.18;49.47363;934.5927;;;;
2022/06/23 11:03:41;;;;;;;3.9;1.6;;;;;;;29.26;48.87402;934.5306;;;;
2022/06/23 11:06:06;;;;;;;3.3;1.4;;;;;;;29.39;50.79492;934.5178;;;;
2022/06/23 11:08:35;;;;;;;5.6;1.4;;;;;;;29.49;47.48145;934.4755;;;;
2022/06/23 11:11:00;;;;;;;2.9;1.6;;;;;;;29.47;47.53809;934.3942;;;;
2022/06/23 11:13:28;;;;;;;6.1;1.4;;;;;;;29.64;46.63867;934.3272;;;;
2022/06/23 11:15:53;;;;;;;3.8;1.5;;;;;;;29.77;45.39941;934.2764;;;;
2022/06/23 11:18:19;;;;;;;7.3;1.7;;;;;;;29.82;47.91016;934.2839;;;;
2022/06/23 11:20:45;;;;;;;5.2;1.5;;;;;;;29.81;46.22754;934.2555;;;;
2022/06/23 11:23:10;;;;;;;2.5;1.4;;;;;;;29.21;48.81055;934.2461;;;;
2022/06/23 11:25:36;;;;;;;5;1.6;;;;;;;29.3;49.71289;934.2445;;;;
2022/06/23 11:28:04;;;;;;;3.2;1.4;;;;;;;29.7;47.19434;934.1652;;;;
2022/06/23 11:30:26;;;;;;;3.4;1.5;;;;;;;29.85;47.70996;934.0931;;;;
2022/06/23 11:32:51;;;;;;;6.4;1.5;;;;;;;29.19;49.83203;934.0198;;;;
2022/06/23 11:35:16;;;;;;;3.4;1.3;;;;;;;28.99;50.23828;934.0694;;;;
2022/06/23 11:37:44;;;;;;;4.5;1.7;;;;;;;28.98;50.82031;933.9356;;;;
2022/06/23 11:40:09;;;;;;;3.5;1.5;;;;;;;28.52;51.7793;933.9675;;;;
2022/06/23 11:42:38;;;;;;;3.9;1.6;;;;;;;28.93;47.63672;933.8408;;;;
2022/06/23 11:45:03;;;;;;;3.1;1.5;;;;;;;29.34;47.0127;933.7928;;;;
2022/06/23 11:47:30;;;;;;;5.8;1.5;;;;;;;29.56;49.78906;933.7195;;;;
2022/06/23 11:50:00;;;;;;;5.1;1.6;;;;;;;29.92;46.66797;933.7474;;;;
2022/06/23 11:52:25;;;;;;;4.8;1.4;;;;;;;30.04;44.62793;933.7322;;;;
2022/06/23 11:54:53;;;;;;;3;1.4;;;;;;;30.24;46.1748;933.7136;;;;
2022/06/23 11:57:18;;;;;;;5.1;1.4;;;;;;;30.32;45.04883;933.6763;;;;
2022/06/23 11:59:43;;;;;;;8.4;1.6;;;;;;;29.91;47.94434;933.6635;;;;
2022/06/23 12:02:08;;;;;;;4.6;1.6;;;;;;;29.92;47.40723;933.6262;;;;
2022/06/23 12:04:34;;;;;;;2.7;1.4;;;;;;;29.95;45.37012;933.5613;;;;
2022/06/23 12:07:01;;;;;;;5.1;1.5;;;;;;;30.05;47.28906;933.5416;;;;
2022/06/23 12:09:28;;;;;;;3.2;1.2;;;;;;;29.72;49.60449;933.5229;;;;
2022/06/23 12:11:53;;;;;;;4.1;1.5;;;;;;;29.95;45.35938;933.4667;;;;
2022/06/23 12:14:18;;;;;;;4.5;1.4;;;;;;;30.15;45.86719;933.4749;;;;
2022/06/23 12:16:43;;;;;;;15.8;2.7;;;;;;;29.45;48.64551;933.3884;;;;
2022/06/23 12:19:09;;;;;;;9.8;2.1;;;;;;;29.68;48.09766;933.3256;;;;
2022/06/23 12:21:34;;;;;;;4.7;1.5;;;;;;;29.91;48.16895;933.3775;;;;
2022/06/23 12:23:59;;;;;;;3.9;1.7;;;;;;;30.31;45.83594;933.3211;;;;
2022/06/23 12:26:24;;;;;;;4.3;1.4;;;;;;;30.43;48.56055;933.3474;;;;
2022/06/23 12:28:49;;;;;;;4.9;1.5;;;;;;;30.27;45.60547;933.2887;;;;
2022/06/23 12:31:15;;;;;;;5.3;1.4;;;;;;;30.36;45.99609;933.2749;;;;
2022/06/23 12:33:40;;;;;;;3.5;1.4;;;;;;;30.62;45.13867;933.2695;;;;
2022/06/23 12:36:07;;;;;;;4.8;1.4;;;;;;;30.55;45.1084;933.1744;;;;
2022/06/23 12:38:34;;;;;;;5;1.3;;;;;;;30.61;44.40918;933.0918;;;;
2022/06/23 12:40:59;;;;;;;4.7;1.4;;;;;;;30.86;42.99902;933.1;;;;
2022/06/23 12:43:24;;;;;;;4.7;1.5;;;;;;;30.82;44.95508;933.0677;;;;
2022/06/23 12:45:50;;;;;;;5.6;1.8;;;;;;;30.81;43.30469;933.0087;;;;
2022/06/23 12:48:18;;;;;;;7.3;1.8;;;;;;;30.81;44.08203;933.0251;;;;
2022/06/23 12:50:43;;;;;;;6.5;1.8;;;;;;;30.84;45.50781;933.02;;;;
2022/06/23 12:53:08;;;;;;;8.5;1.8;;;;;;;30.61;47.93359;932.9767;;;;
2022/06/23 12:55:35;;;;;;;5.6;1.5;;;;;;;30.37;46.46387;932.9264;;;;
2022/06/23 12:58:00;;;;;;;3.8;1.4;;;;;;;30.52;46.4668;932.8701;;;;
2022/06/23 13:00:26;;;;;;;4.2;1.5;;;;;;;30.81;44.69141;932.8669;;;;
2022/06/23 13:02:54;;;;;;;5.5;1.4;;;;;;;30.34;45.79199;932.7936;;;;
2022/06/23 13:05:25;;;;;;;3.6;1.2;;;;;;;30.32;45.4668;932.8219;;;;
2022/06/23 13:07:50;;;;;;;3.4;1.6;;;;;;;29.98;45.60059;932.8052;;;;
2022/06/23 13:10:16;;;;;;;26.5;4.1;;;;;;;30.1;47.27148;932.7622;;;;
2022/06/23 13:12:41;;;;;;;3.8;1.3;;;;;;;30.32;44.22656;932.7173;;;;
2022/06/23 13:15:06;;;;;;;6;1.8;;;;;;;30.28;45.34277;932.7115;;;;
2022/06/23 13:17:37;;;;;;;7;1.9;;;;;;;30.5;45.0791;932.7204;;;;
2022/06/23 13:20:03;;;;;;;4.4;1.5;;;;;;;30.59;44.90918;932.6191;;;;
2022/06/23 13:22:28;;;;;;;5.3;1.8;;;;;;;30.76;46.30078;932.6242;;;;
2022/06/23 13:24:56;;;;;;;6.7;1.7;;;;;;;30.67;43.39941;932.5761;;;;
2022/06/23 13:27:20;;;;;;;6.9;1.6;;;;;;;30.67;43.60254;932.5656;;;;
2022/06/23 13:29:45;;;;;;;3.5;1.3;;;;;;;30.77;44.24512;932.5773;;;;
2022/06/23 13:32:10;;;;;;;7.3;1.5;;;;;;;30.82;44.5127;932.5449;;;;
2022/06/23 13:34:36;;;;;;;5.9;1.5;;;;;;;30.64;43.75488;932.5594;;;;
2022/06/23 13:37:01;;;;;;;5.1;1.5;;;;;;;30.57;44.52441;932.5252;;;;
2022/06/23 13:39:26;;;;;;;4.5;1.8;;;;;;;30.32;45.41895;932.5419;;;;
2022/06/23 13:41:52;;;;;;;4.4;1.6;;;;;;;30.34;44.47852;932.4453;;;;
2022/06/23 13:44:17;;;;;;;5.3;2;;;;;;;30.35;45.27832;932.4722;;;;
2022/06/23 13:46:42;;;;;;;3.5;1.4;;;;;;;30.51;46.58496;932.4375;;;;
2022/06/23 13:49:07;;;;;;;5.6;1.7;;;;;;;30.64;44.14941;932.4355;;;;
2022/06/23 13:51:33;;;;;;;3.7;1.7;;;;;;;30.64;43.26465;932.3625;;;;
2022/06/23 13:53:59;;;;;;;9.7;1.9;;;;;;;30.11;46.97363;932.3686;;;;
2022/06/23 13:56:23;;;;;;;3.9;1.9;;;;;;;30.25;46.40332;932.3465;;;;
2022/06/23 13:58:48;;;;;;;3.4;1.6;;;;;;;30.4;46.1084;932.3831;;;;
2022/06/23 14:01:14;;;;;;;4.8;1.9;;;;;;;30.3;47.59082;932.3147;;;;
2022/06/23 14:03:38;;;;;;;5.5;1.8;;;;;;;29.93;48.11328;932.2809;;;;
2022/06/23 14:06:03;;;;;;;12;2.2;;;;;;;30.15;46.32129;932.2823;;;;
2022/06/23 14:08:30;;;;;;;5.2;1.5;;;;;;;30.33;45.44434;932.2174;;;;
2022/06/23 14:10:56;;;;;;;4.2;1.7;;;;;;;30.44;44.36914;932.115;;;;
2022/06/23 14:13:21;;;;;;;3;1.3;;;;;;;30.38;46.64258;932.1199;;;;
2022/06/23 14:15:48;;;;;;;4.8;1.9;;;;;;;30.32;47.41309;932.0906;;;;
2022/06/23 14:18:13;;;;;;;7.9;2;;;;;;;30.08;46.58789;931.9938;;;;
2022/06/23 14:20:39;;;;;;;5.6;1.7;;;;;;;29.76;48.27344;931.997;;;;
2022/06/23 14:23:08;;;;;;;4.3;1.7;;;;;;;29.61;46.98145;932.0023;;;;
2022/06/23 14:25:33;;;;;;;5.6;2;;;;;;;29.67;48.14453;931.8617;;;;